createdAt,value
2017-01-02T00:00:49.926Z,91.01
2017-01-02T00:01:50.172Z,91.2
2017-01-02T00:02:49.914Z,91.01
2017-01-02T00:03:49.914Z,91.01
2017-01-02T00:04:49.490Z,91.48
2017-01-02T00:05:49.904Z,91.96
2017-01-02T00:06:49.895Z,91.1
2017-01-02T00:07:49.891Z,90.91
2017-01-02T00:08:49.891Z,91.2
2017-01-02T00:09:49.879Z,91.1
2017-01-02T00:10:49.470Z,91.1
2017-01-02T00:11:49.878Z,91.01
2017-01-02T00:12:49.863Z,91.29
2017-01-02T00:13:49.870Z,91.1
2017-01-02T00:14:49.863Z,90.82
2017-01-02T00:15:49.859Z,90.91
2017-01-02T00:16:49.850Z,90.91
2017-01-02T00:17:49.850Z,91.01
2017-01-02T00:18:49.843Z,91.1
2017-01-02T00:19:49.838Z,91.1
2017-01-02T00:20:49.839Z,91.1
2017-01-02T00:21:49.834Z,91.01
2017-01-02T00:22:49.822Z,91.58
2017-01-02T00:23:49.822Z,91.01
2017-01-02T00:24:49.810Z,91.67
2017-01-02T00:25:49.810Z,91.39
2017-01-02T00:26:49.394Z,90.91
2017-01-02T00:27:49.807Z,91.86
2017-01-02T00:28:49.791Z,91.1
2017-01-02T00:29:49.794Z,90.82
2017-01-02T00:30:49.791Z,90.82
2017-01-02T00:31:49.787Z,91.67
2017-01-02T00:32:49.370Z,91.77
2017-01-02T00:33:49.779Z,91.2
2017-01-02T00:34:49.767Z,91.01
2017-01-02T00:35:49.350Z,90.82
2017-01-02T00:36:49.763Z,91.01
2017-01-02T00:37:49.751Z,91.1
2017-01-02T00:38:49.339Z,91.01
2017-01-02T00:39:49.750Z,91.1
2017-01-02T00:40:49.747Z,90.82
2017-01-02T00:41:49.734Z,90.82
2017-01-02T00:42:49.727Z,90.91
2017-01-02T00:43:49.727Z,91.01
2017-01-02T00:44:49.727Z,90.82
2017-01-02T00:45:49.718Z,90.82
2017-01-02T00:46:49.715Z,90.73
2017-01-02T00:47:49.299Z,90.91
2017-01-02T00:48:49.699Z,90.91
2017-01-02T00:49:49.702Z,91.58
2017-01-02T00:50:49.695Z,91.58
2017-01-02T00:51:49.687Z,91.48
2017-01-02T00:52:49.695Z,91.67
2017-01-02T00:53:49.279Z,91.58
2017-01-02T00:54:49.675Z,91.58
2017-01-02T00:55:49.695Z,90.91
2017-01-02T00:56:49.251Z,90.82
2017-01-02T00:57:49.663Z,91.86
2017-01-02T00:58:49.664Z,90.73
2017-01-02T00:59:49.655Z,90.73
2017-01-02T01:00:49.651Z,90.82
2017-01-02T01:01:49.231Z,91.48
2017-01-02T01:02:49.638Z,91.67
2017-01-02T01:03:49.635Z,91.77
2017-01-02T01:04:49.223Z,91.77
2017-01-02T01:05:49.623Z,91.48
2017-01-02T01:06:49.619Z,91.2
2017-01-02T01:07:49.204Z,91.48
2017-01-02T01:08:49.607Z,90.91
2017-01-02T01:09:49.607Z,91.48
2017-01-02T01:10:49.195Z,90.91
2017-01-02T01:11:49.599Z,91.86
2017-01-02T01:12:49.599Z,91.48
2017-01-02T01:13:49.183Z,91.48
2017-01-02T01:14:49.179Z,91.39
2017-01-02T01:15:49.579Z,91.77
2017-01-02T01:16:49.575Z,91.48
2017-01-02T01:17:49.571Z,91.48
2017-01-02T01:18:49.151Z,91.48
2017-01-02T01:19:49.563Z,90.91
2017-01-02T01:20:49.559Z,91.58
2017-01-02T01:21:49.339Z,91.48
2017-01-02T01:22:49.547Z,91.48
2017-01-02T01:23:49.539Z,91.67
2017-01-02T01:24:49.127Z,91.48
2017-01-02T01:25:49.531Z,91.67
2017-01-02T01:26:49.531Z,91.39
2017-01-02T01:27:49.111Z,91.58
2017-01-02T01:28:49.515Z,91.58
2017-01-02T01:29:49.511Z,91.39
2017-01-02T01:30:49.503Z,91.39
2017-01-02T01:31:49.512Z,91.39
2017-01-02T01:32:49.503Z,91.39
2017-01-02T01:33:49.083Z,91.67
2017-01-02T01:34:49.496Z,91.77
2017-01-02T01:35:49.079Z,91.39
2017-01-02T01:36:49.479Z,91.29
2017-01-02T01:37:49.479Z,91.2
2017-01-02T01:38:49.064Z,91.48
2017-01-02T01:39:49.467Z,91.48
2017-01-02T01:40:49.468Z,91.48
2017-01-02T01:41:49.456Z,91.48
2017-01-02T01:42:49.460Z,90.91
2017-01-02T01:43:49.043Z,90.73
2017-01-02T01:44:49.448Z,90.91
2017-01-02T01:45:49.448Z,91.48
2017-01-02T01:46:49.024Z,90.91
2017-01-02T01:47:49.424Z,91.1
2017-01-02T01:48:49.431Z,91.29
2017-01-02T01:49:49.016Z,91.2
2017-01-02T01:50:49.424Z,91.58
2017-01-02T01:51:49.412Z,91.01
2017-01-02T01:52:49.004Z,90.91
2017-01-02T01:53:49.408Z,91.01
2017-01-02T01:54:48.984Z,91.39
2017-01-02T01:55:49.396Z,91.58
2017-01-02T01:56:49.396Z,90.82
2017-01-02T01:57:49.392Z,91.1
2017-01-02T01:58:49.384Z,91.67
2017-01-02T01:59:49.372Z,90.82
2017-01-02T02:00:48.964Z,90.73
2017-01-02T02:01:49.372Z,91.48
2017-01-02T02:02:49.360Z,90.82
2017-01-02T02:03:49.369Z,90.82
2017-01-02T02:04:49.356Z,90.73
2017-01-02T02:05:49.345Z,91.48
2017-01-02T02:06:49.341Z,90.73
2017-01-02T02:07:49.345Z,91.2
2017-01-02T02:08:48.925Z,91.58
2017-01-02T02:09:49.333Z,91.1
2017-01-02T02:10:49.329Z,91.1
2017-01-02T02:11:48.913Z,91.2
2017-01-02T02:12:49.309Z,90.91
2017-01-02T02:13:49.313Z,91.2
2017-01-02T02:14:48.897Z,90.82
2017-01-02T02:15:49.301Z,90.91
2017-01-02T02:16:49.301Z,91.01
2017-01-02T02:17:48.881Z,90.73
2017-01-02T02:18:49.317Z,91.1
2017-01-02T02:19:48.873Z,91.01
2017-01-02T02:20:49.281Z,90.91
2017-01-02T02:21:49.277Z,90.91
2017-01-02T02:22:48.865Z,91.39
2017-01-02T02:23:49.269Z,91.01
2017-01-02T02:24:49.262Z,91.01
2017-01-02T02:25:48.842Z,91.2
2017-01-02T02:26:49.253Z,91.39
2017-01-02T02:27:49.246Z,91.01
2017-01-02T02:28:48.837Z,91.48
2017-01-02T02:29:49.238Z,91.01
2017-01-02T02:30:48.822Z,90.91
2017-01-02T02:31:49.230Z,91.1
2017-01-02T02:32:49.230Z,91.01
2017-01-02T02:33:48.806Z,90.91
2017-01-02T02:34:49.218Z,91.29
2017-01-02T02:35:49.214Z,91.01
2017-01-02T02:36:48.798Z,91.01
2017-01-02T02:37:49.202Z,91.58
2017-01-02T02:38:48.790Z,91.01
2017-01-02T02:39:49.194Z,91.01
2017-01-02T02:40:49.190Z,91.01
2017-01-02T02:41:49.194Z,90.91
2017-01-02T02:42:49.182Z,91.01
2017-01-02T02:43:49.171Z,91.01
2017-01-02T02:44:49.170Z,90.82
2017-01-02T02:45:48.762Z,91.86
2017-01-02T02:46:49.166Z,91.1
2017-01-02T02:47:48.754Z,90.82
2017-01-02T02:48:49.158Z,91.2
2017-01-02T02:49:48.735Z,90.73
2017-01-02T02:50:49.142Z,90.91
2017-01-02T02:51:49.147Z,91.48
2017-01-02T02:52:49.130Z,91.86
2017-01-02T02:53:49.127Z,91.48
2017-01-02T02:54:48.711Z,91.48
2017-01-02T02:55:49.127Z,91.48
2017-01-02T02:56:49.115Z,91.48
2017-01-02T02:57:48.703Z,91.48
2017-01-02T02:58:49.103Z,91.29
2017-01-02T02:59:49.099Z,91.77
2017-01-02T03:00:49.135Z,90.73
2017-01-02T03:01:49.100Z,91.67
2017-01-02T03:02:48.687Z,90.82
2017-01-02T03:03:49.079Z,91.2
2017-01-02T03:04:48.667Z,91.29
2017-01-02T03:05:49.075Z,91.67
2017-01-02T03:06:49.067Z,90.82
2017-01-02T03:07:49.071Z,91.29
2017-01-02T03:08:49.060Z,91.01
2017-01-02T03:09:48.646Z,90.91
2017-01-02T03:10:49.055Z,90.91
2017-01-02T03:11:49.047Z,91.01
2017-01-02T03:12:49.036Z,91.01
2017-01-02T03:13:49.048Z,91.01
2017-01-02T03:14:48.620Z,90.73
2017-01-02T03:15:49.031Z,91.01
2017-01-02T03:16:48.608Z,91.29
2017-01-02T03:17:49.016Z,91.01
2017-01-02T03:18:49.012Z,90.91
2017-01-02T03:19:48.600Z,91.39
2017-01-02T03:20:48.600Z,91.01
2017-01-02T03:21:48.588Z,91.01
2017-01-02T03:22:48.991Z,91.01
2017-01-02T03:23:48.988Z,91.29
2017-01-02T03:24:48.580Z,91.2
2017-01-02T03:25:48.980Z,91.2
2017-01-02T03:26:48.564Z,91.2
2017-01-02T03:27:48.972Z,91.2
2017-01-02T03:28:48.964Z,91.39
2017-01-02T03:29:48.964Z,91.29
2017-01-02T03:30:48.964Z,91.1
2017-01-02T03:31:48.568Z,91.01
2017-01-02T03:32:48.952Z,91.48
2017-01-02T03:33:48.528Z,91.1
2017-01-02T03:34:48.940Z,91.01
2017-01-02T03:35:48.936Z,91.48
2017-01-02T03:36:48.925Z,91.48
2017-01-02T03:37:48.924Z,91.2
2017-01-02T03:38:48.505Z,91.2
2017-01-02T03:39:48.517Z,91.01
2017-01-02T03:40:48.497Z,91.25
2017-01-02T03:41:48.905Z,91.29
2017-01-02T03:42:48.901Z,91.2
2017-01-02T03:43:48.897Z,91.1
2017-01-02T03:44:48.885Z,91.39
2017-01-02T03:45:48.894Z,91.34
2017-01-02T03:46:48.889Z,91.39
2017-01-02T03:47:48.474Z,91.01
2017-01-02T03:48:48.876Z,91.39
2017-01-02T03:49:48.453Z,91.29
2017-01-02T03:50:48.869Z,90.77
2017-01-02T03:51:48.860Z,91.1
2017-01-02T03:52:48.853Z,91.01
2017-01-02T03:53:48.852Z,91.29
2017-01-02T03:54:48.437Z,91.2
2017-01-02T03:55:48.848Z,91.29
2017-01-02T03:56:48.833Z,90.63
2017-01-02T03:57:48.829Z,91.2
2017-01-02T03:58:48.829Z,91.01
2017-01-02T03:59:48.816Z,90.73
2017-01-02T04:00:48.411Z,90.82
2017-01-02T04:01:48.404Z,90.82
2017-01-02T04:02:48.813Z,90.63
2017-01-02T04:03:48.809Z,90.63
2017-01-02T04:04:48.801Z,90.82
2017-01-02T04:05:48.793Z,91.01
2017-01-02T04:06:48.788Z,91.2
2017-01-02T04:07:48.789Z,91.01
2017-01-02T04:08:48.365Z,91.2
2017-01-02T04:09:48.777Z,91.2
2017-01-02T04:10:48.769Z,90.91
2017-01-02T04:11:48.769Z,90.63
2017-01-02T04:12:48.756Z,90.87
2017-01-02T04:13:48.777Z,91.01
2017-01-02T04:14:48.749Z,90.87
2017-01-02T04:15:48.340Z,90.82
2017-01-02T04:16:48.337Z,90.87
2017-01-02T04:17:48.325Z,90.68
2017-01-02T04:18:48.732Z,90.82
2017-01-02T04:19:48.725Z,90.49
2017-01-02T04:20:48.721Z,90.44
2017-01-02T04:21:48.717Z,90.49
2017-01-02T04:22:48.309Z,90.4
2017-01-02T04:23:48.709Z,90.59
2017-01-02T04:24:48.705Z,90.59
2017-01-02T04:25:48.697Z,90.68
2017-01-02T04:26:48.698Z,91.15
2017-01-02T04:27:48.697Z,90.68
2017-01-02T04:28:48.687Z,91.15
2017-01-02T04:29:48.685Z,90.87
2017-01-02T04:30:48.677Z,91.2
2017-01-02T04:31:48.260Z,90.77
2017-01-02T04:32:48.669Z,91.06
2017-01-02T04:33:48.253Z,90.87
2017-01-02T04:34:48.653Z,90.82
2017-01-02T04:35:48.661Z,90.96
2017-01-02T04:36:48.645Z,90.96
2017-01-02T04:37:48.645Z,90.77
2017-01-02T04:38:48.641Z,90.68
2017-01-02T04:39:48.633Z,90.4
2017-01-02T04:40:48.225Z,91.15
2017-01-02T04:41:48.625Z,90.96
2017-01-02T04:42:48.209Z,90.59
2017-01-02T04:43:48.617Z,90.59
2017-01-02T04:44:48.613Z,91.15
2017-01-02T04:45:48.637Z,91.39
2017-01-02T04:46:48.189Z,90.87
2017-01-02T04:47:48.589Z,91.53
2017-01-02T04:48:48.597Z,91.06
2017-01-02T04:49:48.173Z,90.91
2017-01-02T04:50:48.589Z,90.96
2017-01-02T04:51:48.165Z,90.96
2017-01-02T04:52:48.573Z,91.15
2017-01-02T04:53:48.157Z,91.2
2017-01-02T04:54:48.569Z,90.73
2017-01-02T04:55:48.561Z,91.01
2017-01-02T04:56:48.565Z,90.73
2017-01-02T04:57:48.545Z,90.77
2017-01-02T04:58:48.541Z,90.59
2017-01-02T04:59:48.545Z,90.4
2017-01-02T05:00:48.133Z,90.68
2017-01-02T05:01:48.525Z,90.77
2017-01-02T05:02:48.117Z,91.06
2017-01-02T05:03:48.525Z,90.77
2017-01-02T05:04:48.115Z,90.96
2017-01-02T05:05:48.509Z,91.06
2017-01-02T05:06:48.096Z,91.15
2017-01-02T05:07:48.505Z,91.15
2017-01-02T05:08:48.497Z,91.15
2017-01-02T05:09:48.497Z,91.25
2017-01-02T05:10:48.488Z,91.15
2017-01-02T05:11:48.484Z,91.34
2017-01-02T05:12:48.485Z,91.29
2017-01-02T05:13:48.064Z,91.2
2017-01-02T05:14:48.468Z,91.2
2017-01-02T05:15:48.469Z,91.2
2017-01-02T05:16:48.460Z,91.2
2017-01-02T05:17:48.052Z,91.01
2017-01-02T05:18:48.445Z,91.2
2017-01-02T05:19:48.036Z,91.2
2017-01-02T05:20:48.441Z,91.29
2017-01-02T05:21:48.445Z,91.01
2017-01-02T05:22:48.433Z,91.01
2017-01-02T05:23:48.429Z,90.91
2017-01-02T05:24:48.425Z,91.01
2017-01-02T05:25:48.421Z,91.2
2017-01-02T05:26:48.005Z,91.2
2017-01-02T05:27:48.409Z,91.01
2017-01-02T05:28:47.989Z,91.01
2017-01-02T05:29:48.401Z,90.82
2017-01-02T05:30:47.989Z,90.63
2017-01-02T05:31:48.389Z,91.01
2017-01-02T05:32:47.969Z,91.2
2017-01-02T05:33:48.385Z,90.73
2017-01-02T05:34:47.973Z,90.63
2017-01-02T05:35:48.365Z,90.91
2017-01-02T05:36:48.369Z,90.63
2017-01-02T05:37:48.357Z,91.2
2017-01-02T05:38:48.362Z,90.73
2017-01-02T05:39:48.345Z,91.01
2017-01-02T05:40:48.349Z,90.82
2017-01-02T05:41:47.933Z,90.73
2017-01-02T05:42:48.338Z,91.01
2017-01-02T05:43:48.326Z,90.91
2017-01-02T05:44:48.330Z,90.44
2017-01-02T05:45:48.326Z,90.63
2017-01-02T05:46:48.321Z,90.63
2017-01-02T05:47:47.902Z,90.91
2017-01-02T05:48:48.313Z,90.54
2017-01-02T05:49:48.310Z,90.82
2017-01-02T05:50:48.301Z,90.82
2017-01-02T05:51:48.294Z,90.73
2017-01-02T05:52:47.882Z,90.73
2017-01-02T05:53:48.286Z,90.91
2017-01-02T05:54:47.870Z,91.01
2017-01-02T05:55:48.274Z,91.01
2017-01-02T05:56:48.270Z,90.91
2017-01-02T05:57:48.270Z,91.2
2017-01-02T05:58:47.850Z,90.96
2017-01-02T05:59:48.262Z,91.1
2017-01-02T06:00:47.842Z,90.87
2017-01-02T06:01:48.250Z,90.63
2017-01-02T06:02:48.246Z,90.87
2017-01-02T06:03:47.830Z,90.77
2017-01-02T06:04:48.230Z,91.2
2017-01-02T06:05:48.226Z,91.06
2017-01-02T06:06:48.230Z,91.15
2017-01-02T06:07:47.810Z,91.06
2017-01-02T06:08:48.219Z,90.87
2017-01-02T06:09:47.798Z,91.1
2017-01-02T06:10:48.214Z,91.01
2017-01-02T06:11:47.790Z,91.29
2017-01-02T06:12:48.194Z,91.67
2017-01-02T06:13:48.194Z,90.96
2017-01-02T06:14:48.186Z,91.01
2017-01-02T06:15:48.190Z,90.96
2017-01-02T06:16:48.178Z,91.01
2017-01-02T06:17:48.174Z,91.06
2017-01-02T06:18:47.762Z,91.25
2017-01-02T06:19:48.171Z,91.53
2017-01-02T06:20:47.750Z,91.34
2017-01-02T06:21:48.158Z,90.96
2017-01-02T06:22:47.747Z,91.06
2017-01-02T06:23:48.143Z,91.06
2017-01-02T06:24:48.139Z,91.06
2017-01-02T06:25:48.139Z,90.68
2017-01-02T06:26:48.134Z,90.68
2017-01-02T06:27:48.126Z,90.68
2017-01-02T06:28:48.123Z,90.87
2017-01-02T06:29:47.706Z,90.68
2017-01-02T06:30:48.111Z,91.44
2017-01-02T06:31:48.111Z,91.1
2017-01-02T06:32:48.107Z,90.87
2017-01-02T06:33:47.694Z,91.34
2017-01-02T06:34:48.091Z,91.01
2017-01-02T06:35:47.675Z,91.1
2017-01-02T06:36:47.679Z,91.29
2017-01-02T06:37:48.083Z,90.82
2017-01-02T06:38:48.075Z,91.1
2017-01-02T06:39:48.067Z,91.1
2017-01-02T06:40:48.063Z,91.01
2017-01-02T06:41:48.059Z,91.01
2017-01-02T06:42:48.051Z,90.91
2017-01-02T06:43:48.047Z,91.1
2017-01-02T06:44:47.639Z,91.01
2017-01-02T06:45:48.043Z,91.1
2017-01-02T06:46:48.039Z,91.29
2017-01-02T06:47:47.631Z,90.91
2017-01-02T06:48:48.027Z,91.2
2017-01-02T06:49:48.019Z,91.1
2017-01-02T06:50:47.611Z,90.82
2017-01-02T06:51:48.015Z,91.1
2017-01-02T06:52:48.007Z,91.58
2017-01-02T06:53:47.595Z,91.2
2017-01-02T06:54:47.591Z,91.86
2017-01-02T06:55:47.991Z,90.91
2017-01-02T06:56:47.995Z,91.1
2017-01-02T06:57:47.991Z,91.48
2017-01-02T06:58:47.983Z,91.86
2017-01-02T06:59:47.563Z,90.82
2017-01-02T07:00:47.972Z,91.77
2017-01-02T07:01:47.559Z,91.01
2017-01-02T07:02:47.960Z,91.1
2017-01-02T07:03:47.552Z,91.1
2017-01-02T07:04:47.948Z,91.1
2017-01-02T07:05:47.532Z,91.39
2017-01-02T07:06:47.564Z,91.39
2017-01-02T07:07:47.936Z,91.01
2017-01-02T07:08:47.928Z,91.29
2017-01-02T07:09:47.928Z,91.29
2017-01-02T07:10:47.920Z,91.1
2017-01-02T07:11:47.916Z,91.1
2017-01-02T07:12:47.916Z,91.2
2017-01-02T07:13:47.908Z,90.91
2017-01-02T07:14:47.503Z,90.91
2017-01-02T07:15:47.900Z,91.01
2017-01-02T07:16:47.484Z,91.01
2017-01-02T07:17:47.888Z,91.2
2017-01-02T07:18:47.892Z,91.01
2017-01-02T07:19:47.885Z,91.29
2017-01-02T07:20:47.876Z,91.01
2017-01-02T07:21:47.468Z,91.01
2017-01-02T07:22:47.869Z,91.2
2017-01-02T07:23:47.449Z,91.1
2017-01-02T07:24:47.864Z,90.73
2017-01-02T07:25:47.857Z,91.39
2017-01-02T07:26:47.853Z,90.91
2017-01-02T07:27:47.849Z,91.2
2017-01-02T07:28:47.841Z,90.54
2017-01-02T07:29:47.841Z,90.73
2017-01-02T07:30:47.421Z,90.63
2017-01-02T07:31:47.833Z,90.63
2017-01-02T07:32:47.409Z,90.63
2017-01-02T07:33:47.813Z,90.54
2017-01-02T07:34:47.401Z,90.63
2017-01-02T07:35:47.809Z,90.54
2017-01-02T07:36:47.809Z,90.54
2017-01-02T07:37:47.389Z,90.06
2017-01-02T07:38:47.794Z,90.35
2017-01-02T07:39:47.381Z,90.35
2017-01-02T07:40:47.786Z,90.25
2017-01-02T07:41:47.781Z,90.35
2017-01-02T07:42:47.777Z,90.35
2017-01-02T07:43:47.970Z,90.35
2017-01-02T07:44:47.770Z,90.54
2017-01-02T07:45:47.762Z,90.16
2017-01-02T07:46:47.342Z,90.35
2017-01-02T07:47:47.350Z,89.97
2017-01-02T07:48:47.750Z,89.97
2017-01-02T07:49:47.742Z,89.97
2017-01-02T07:50:47.742Z,90.06
2017-01-02T07:51:47.735Z,90.16
2017-01-02T07:52:47.734Z,90.25
2017-01-02T07:53:47.731Z,89.97
2017-01-02T07:54:47.731Z,90.16
2017-01-02T07:55:47.716Z,90.25
2017-01-02T07:56:47.706Z,89.97
2017-01-02T07:57:47.707Z,89.78
2017-01-02T07:58:47.706Z,89.69
2017-01-02T07:59:47.699Z,89.5
2017-01-02T08:00:47.695Z,89.69
2017-01-02T08:01:47.283Z,89.78
2017-01-02T08:02:47.683Z,89.5
2017-01-02T08:03:47.679Z,89.69
2017-01-02T08:04:47.259Z,89.78
2017-01-02T08:05:47.667Z,89.78
2017-01-02T08:06:47.663Z,90.16
2017-01-02T08:07:47.667Z,89.5
2017-01-02T08:08:47.655Z,89.87
2017-01-02T08:09:47.243Z,89.31
2017-01-02T08:10:47.243Z,89.5
2017-01-02T08:11:47.647Z,89.5
2017-01-02T08:12:47.231Z,89.5
2017-01-02T08:13:47.632Z,89.07
2017-01-02T08:14:47.628Z,89.36
2017-01-02T08:15:47.623Z,89.26
2017-01-02T08:16:47.624Z,89.54
2017-01-02T08:17:47.620Z,89.36
2017-01-02T08:18:47.204Z,89.36
2017-01-02T08:19:47.614Z,89.36
2017-01-02T08:20:47.600Z,88.98
2017-01-02T08:21:47.592Z,89.17
2017-01-02T08:22:47.592Z,88.98
2017-01-02T08:23:47.592Z,89.36
2017-01-02T08:24:47.584Z,89.17
2017-01-02T08:25:47.576Z,88.69
2017-01-02T08:26:47.583Z,88.6
2017-01-02T08:27:47.160Z,88.88
2017-01-02T08:28:47.560Z,88.69
2017-01-02T08:29:47.564Z,88.88
2017-01-02T08:30:47.141Z,88.79
2017-01-02T08:31:47.552Z,88.69
2017-01-02T08:32:47.552Z,88.69
2017-01-02T08:33:47.546Z,88.22
2017-01-02T08:34:47.129Z,88.22
2017-01-02T08:35:47.533Z,88.22
2017-01-02T08:36:47.525Z,88.22
2017-01-02T08:37:47.525Z,88.03
2017-01-02T08:38:47.105Z,88.12
2017-01-02T08:39:47.521Z,87.93
2017-01-02T08:40:47.510Z,88.22
2017-01-02T08:41:47.509Z,88.31
2017-01-02T08:42:47.097Z,87.84
2017-01-02T08:43:47.501Z,87.46
2017-01-02T08:44:47.489Z,87.55
2017-01-02T08:45:47.489Z,88.03
2017-01-02T08:46:47.069Z,87.65
2017-01-02T08:47:47.485Z,87.37
2017-01-02T08:48:47.073Z,87.65
2017-01-02T08:49:47.469Z,87.65
2017-01-02T08:50:47.461Z,87.55
2017-01-02T08:51:47.465Z,87.23
2017-01-02T08:52:47.462Z,87.13
2017-01-02T08:53:47.453Z,86.9
2017-01-02T08:54:47.454Z,87.13
2017-01-02T08:55:47.449Z,86.66
2017-01-02T08:56:47.034Z,87.23
2017-01-02T08:57:47.442Z,86.94
2017-01-02T08:58:47.437Z,86.66
2017-01-02T08:59:47.429Z,86.75
2017-01-02T09:00:47.426Z,86.56
2017-01-02T09:01:47.414Z,86.56
2017-01-02T09:02:47.004Z,86.94
2017-01-02T09:03:46.998Z,86.75
2017-01-02T09:04:47.410Z,86.75
2017-01-02T09:05:47.398Z,87.23
2017-01-02T09:06:47.398Z,86.28
2017-01-02T09:07:47.398Z,86.18
2017-01-02T09:08:47.394Z,86.37
2017-01-02T09:09:47.390Z,85.99
2017-01-02T09:10:46.974Z,85.71
2017-01-02T09:11:46.972Z,86.18
2017-01-02T09:12:47.367Z,85.71
2017-01-02T09:13:47.370Z,85.9
2017-01-02T09:14:47.359Z,86.09
2017-01-02T09:15:47.355Z,85.24
2017-01-02T09:16:47.351Z,85.61
2017-01-02T09:17:47.351Z,85.52
2017-01-02T09:18:47.371Z,85.71
2017-01-02T09:19:47.343Z,85.42
2017-01-02T09:20:47.339Z,85.42
2017-01-02T09:21:47.339Z,85.24
2017-01-02T09:22:46.919Z,85.33
2017-01-02T09:23:47.323Z,85.8
2017-01-02T09:24:46.908Z,85.8
2017-01-02T09:25:47.312Z,85.99
2017-01-02T09:26:47.312Z,85.52
2017-01-02T09:27:47.311Z,85.61
2017-01-02T09:28:47.304Z,85.33
2017-01-02T09:29:47.312Z,85.24
2017-01-02T09:30:47.300Z,84.95
2017-01-02T09:31:46.883Z,84.77
2017-01-02T09:32:47.288Z,85.05
2017-01-02T09:33:46.884Z,84.48
2017-01-02T09:34:47.280Z,84.58
2017-01-02T09:35:47.280Z,84.67
2017-01-02T09:36:46.856Z,84.2
2017-01-02T09:37:47.268Z,84.48
2017-01-02T09:38:47.268Z,84.58
2017-01-02T09:39:47.256Z,84.48
2017-01-02T09:40:47.256Z,84.29
2017-01-02T09:41:47.248Z,84.29
2017-01-02T09:42:46.840Z,84.29
2017-01-02T09:43:47.240Z,83.91
2017-01-02T09:44:47.236Z,83.91
2017-01-02T09:45:46.820Z,84.58
2017-01-02T09:46:46.817Z,84.48
2017-01-02T09:47:46.817Z,84.67
2017-01-02T09:48:46.809Z,84.29
2017-01-02T09:49:47.216Z,84.29
2017-01-02T09:50:47.213Z,84.29
2017-01-02T09:51:47.221Z,84.29
2017-01-02T09:52:47.201Z,84.2
2017-01-02T09:53:47.198Z,84.29
2017-01-02T09:54:47.201Z,84.29
2017-01-02T09:55:47.197Z,84.29
2017-01-02T09:56:47.189Z,84.1
2017-01-02T09:57:47.185Z,83.86
2017-01-02T09:58:47.173Z,83.39
2017-01-02T09:59:47.177Z,83.58
2017-01-02T10:00:46.761Z,83.39
2017-01-02T10:01:46.761Z,83.01
2017-01-02T10:02:47.165Z,82.91
2017-01-02T10:03:47.157Z,82.53
2017-01-02T10:04:47.153Z,82.53
2017-01-02T10:05:47.154Z,82.63
2017-01-02T10:06:47.154Z,83.2
2017-01-02T10:07:46.726Z,82.63
2017-01-02T10:08:47.137Z,82.53
2017-01-02T10:09:47.138Z,82.72
2017-01-02T10:10:47.130Z,82.72
2017-01-02T10:11:47.138Z,82.72
2017-01-02T10:12:47.114Z,82.91
2017-01-02T10:13:46.710Z,82.82
2017-01-02T10:14:47.114Z,82.25
2017-01-02T10:15:47.110Z,82.53
2017-01-02T10:16:47.110Z,82.44
2017-01-02T10:17:47.094Z,82.72
2017-01-02T10:18:46.690Z,82.34
2017-01-02T10:19:47.090Z,82.15
2017-01-02T10:20:47.090Z,82.15
2017-01-02T10:21:46.682Z,82.53
2017-01-02T10:22:47.086Z,82.25
2017-01-02T10:23:46.670Z,82.63
2017-01-02T10:24:47.075Z,82.44
2017-01-02T10:25:47.067Z,82.44
2017-01-02T10:26:47.067Z,82.34
2017-01-02T10:27:47.063Z,82.34
2017-01-02T10:28:47.063Z,82.34
2017-01-02T10:29:47.055Z,81.96
2017-01-02T10:30:47.046Z,82.1
2017-01-02T10:31:46.639Z,81.72
2017-01-02T10:32:47.043Z,81.63
2017-01-02T10:33:47.043Z,81.15
2017-01-02T10:34:46.623Z,80.68
2017-01-02T10:35:47.031Z,80.87
2017-01-02T10:36:47.031Z,81.53
2017-01-02T10:37:47.027Z,81.06
2017-01-02T10:38:47.023Z,80.96
2017-01-02T10:39:47.015Z,80.77
2017-01-02T10:40:47.015Z,80.58
2017-01-02T10:41:47.003Z,80.68
2017-01-02T10:42:46.595Z,80.68
2017-01-02T10:43:47.000Z,80.87
2017-01-02T10:44:46.999Z,80.58
2017-01-02T10:45:46.584Z,80.96
2017-01-02T10:46:46.988Z,80.77
2017-01-02T10:47:46.572Z,81.06
2017-01-02T10:48:46.568Z,80.4
2017-01-02T10:49:46.972Z,80.02
2017-01-02T10:50:46.972Z,79.93
2017-01-02T10:51:46.964Z,80.68
2017-01-02T10:52:46.560Z,80.87
2017-01-02T10:53:46.956Z,81.06
2017-01-02T10:54:46.960Z,80.77
2017-01-02T10:55:46.540Z,80.96
2017-01-02T10:56:46.948Z,80.87
2017-01-02T10:57:46.540Z,81.15
2017-01-02T10:58:46.936Z,80.87
2017-01-02T10:59:46.945Z,80.96
2017-01-02T11:00:46.936Z,81.15
2017-01-02T11:01:46.936Z,81.06
2017-01-02T11:02:46.516Z,80.58
2017-01-02T11:03:46.931Z,80.68
2017-01-02T11:04:46.513Z,80.02
2017-01-02T11:05:46.912Z,80.21
2017-01-02T11:06:46.917Z,79.83
2017-01-02T11:07:46.913Z,80.02
2017-01-02T11:08:46.901Z,80.11
2017-01-02T11:09:46.897Z,80.77
2017-01-02T11:10:46.493Z,81.15
2017-01-02T11:11:46.893Z,80.68
2017-01-02T11:12:46.889Z,81.25
2017-01-02T11:13:46.473Z,81.53
2017-01-02T11:14:46.885Z,81.53
2017-01-02T11:15:46.461Z,81.15
2017-01-02T11:16:46.873Z,80.96
2017-01-02T11:17:46.461Z,80.77
2017-01-02T11:18:46.873Z,81.01
2017-01-02T11:19:46.861Z,80.53
2017-01-02T11:20:46.861Z,80.34
2017-01-02T11:21:46.861Z,79.77
2017-01-02T11:22:46.857Z,79.87
2017-01-02T11:23:46.846Z,79.68
2017-01-02T11:24:46.437Z,79.11
2017-01-02T11:25:46.841Z,79.21
2017-01-02T11:26:46.842Z,79.06
2017-01-02T11:27:46.839Z,78.67
2017-01-02T11:28:46.829Z,78.39
2017-01-02T11:29:46.830Z,78.39
2017-01-02T11:30:46.826Z,78.3
2017-01-02T11:31:46.826Z,78.11
2017-01-02T11:32:46.822Z,77.92
2017-01-02T11:33:46.814Z,77.73
2017-01-02T11:34:46.814Z,77.92
2017-01-02T11:35:46.806Z,77.92
2017-01-02T11:36:46.798Z,77.54
2017-01-02T11:37:46.802Z,76.97
2017-01-02T11:38:46.794Z,76.68
2017-01-02T11:39:46.790Z,76.87
2017-01-02T11:40:46.790Z,76.68
2017-01-02T11:41:46.374Z,76.59
2017-01-02T11:42:46.788Z,76.4
2017-01-02T11:43:46.366Z,76.87
2017-01-02T11:44:46.779Z,76.68
2017-01-02T11:45:46.771Z,76.68
2017-01-02T11:46:46.766Z,76.68
2017-01-02T11:47:46.350Z,76.4
2017-01-02T11:48:46.758Z,76.5
2017-01-02T11:49:46.762Z,77.22
2017-01-02T11:50:46.762Z,76.93
2017-01-02T11:51:46.755Z,77.31
2017-01-02T11:52:46.742Z,76.65
2017-01-02T11:53:46.747Z,77.59
2017-01-02T11:54:46.739Z,77.4
2017-01-02T11:55:46.735Z,77.59
2017-01-02T11:56:46.327Z,77.31
2017-01-02T11:57:46.731Z,77.31
2017-01-02T11:58:46.319Z,77.5
2017-01-02T11:59:46.723Z,77.5
2017-01-02T12:00:46.719Z,77.12
2017-01-02T12:01:46.300Z,77.5
2017-01-02T12:02:46.719Z,77.22
2017-01-02T12:03:46.707Z,77.78
2017-01-02T12:04:46.699Z,77.69
2017-01-02T12:05:46.707Z,77.5
2017-01-02T12:06:46.287Z,77.69
2017-01-02T12:07:46.691Z,77.73
2017-01-02T12:08:46.695Z,77.64
2017-01-02T12:09:46.687Z,77.16
2017-01-02T12:10:46.691Z,76.68
2017-01-02T12:11:46.675Z,76.21
2017-01-02T12:12:46.267Z,75.84
2017-01-02T12:13:46.267Z,74.88
2017-01-02T12:14:46.667Z,75.26
2017-01-02T12:15:46.667Z,74.79
2017-01-02T12:16:46.663Z,74.6
2017-01-02T12:17:46.660Z,74.32
2017-01-02T12:18:46.656Z,74.73
2017-01-02T12:19:46.655Z,73.88
2017-01-02T12:20:46.648Z,73.88
2017-01-02T12:21:46.652Z,73.6
2017-01-02T12:22:46.640Z,73.69
2017-01-02T12:23:46.648Z,73.88
2017-01-02T12:24:46.640Z,73.88
2017-01-02T12:25:46.635Z,72.93
2017-01-02T12:26:46.636Z,73.31
2017-01-02T12:27:46.632Z,73.31
2017-01-02T12:28:46.636Z,73.12
2017-01-02T12:29:46.876Z,73.41
2017-01-02T12:30:46.624Z,73.5
2017-01-02T12:31:46.616Z,72.74
2017-01-02T12:32:46.616Z,72.78
2017-01-02T12:33:46.616Z,72.49
2017-01-02T12:34:46.600Z,72.3
2017-01-02T12:35:46.608Z,71.83
2017-01-02T12:36:46.188Z,70.88
2017-01-02T12:37:46.592Z,70.59
2017-01-02T12:38:46.596Z,71.07
2017-01-02T12:39:46.596Z,70.98
2017-01-02T12:40:46.592Z,71.07
2017-01-02T12:41:46.588Z,70.94
2017-01-02T12:42:46.180Z,70.94
2017-01-02T12:43:46.580Z,71.03
2017-01-02T12:44:46.576Z,71.51
2017-01-02T12:45:46.572Z,71.89
2017-01-02T12:46:46.573Z,71.98
2017-01-02T12:47:46.568Z,72.55
2017-01-02T12:48:46.568Z,72.17
2017-01-02T12:49:46.565Z,72.08
2017-01-02T12:50:46.144Z,72.04
2017-01-02T12:51:46.137Z,72.14
2017-01-02T12:52:46.553Z,72.71
2017-01-02T12:53:46.552Z,72.52
2017-01-02T12:54:46.541Z,72.89
2017-01-02T12:55:46.544Z,73.18
2017-01-02T12:56:46.129Z,73.27